sensor_id;sensor_type;location;lat;lon;timestamp;P1;durP1;ratioP1;P2;durP2;ratioP2
42586;SDS011;28216;53.362;-6.288;2022-11-14T00:00:40;2.58;;;1.85;;
42586;SDS011;28216;53.362;-6.288;2022-11-14T00:03:07;3.47;;;2.20;;
42586;SDS011;28216;53.362;-6.288;2022-11-14T00:05:37;3.17;;;1.98;;
42586;SDS011;28216;53.362;-6.288;2022-11-14T00:08:11;2.50;;;1.75;;
42586;SDS011;28216;53.362;-6.288;2022-11-14T00:10:43;4.80;;;1.80;;
42586;SDS011;28216;53.362;-6.288;2022-11-14T00:13:09;2.35;;;2.10;;
42586;SDS011;28216;53.362;-6.288;2022-11-14T00:15:35;2.42;;;1.85;;
42586;SDS011;28216;53.362;-6.288;2022-11-14T00:18:00;3.78;;;2.33;;
42586;SDS011;28216;53.362;-6.288;2022-11-14T00:20:26;4.45;;;2.22;;
42586;SDS011;28216;53.362;-6.288;2022-11-14T00:22:51;3.00;;;2.20;;
42586;SDS011;28216;53.362;-6.288;2022-11-14T00:25:17;3.03;;;1.98;;
42586;SDS011;28216;53.362;-6.288;2022-11-14T00:27:42;3.10;;;2.20;;
42586;SDS011;28216;53.362;-6.288;2022-11-14T00:30:07;2.65;;;2.20;;
42586;SDS011;28216;53.362;-6.288;2022-11-14T00:32:33;3.05;;;2.08;;
42586;SDS011;28216;53.362;-6.288;2022-11-14T00:34:59;6.28;;;2.28;;
42586;SDS011;28216;53.362;-6.288;2022-11-14T00:37:24;3.88;;;2.28;;
42586;SDS011;28216;53.362;-6.288;2022-11-14T00:39:51;2.97;;;1.80;;
42586;SDS011;28216;53.362;-6.288;2022-11-14T00:42:16;3.33;;;2.00;;
42586;SDS011;28216;53.362;-6.288;2022-11-14T00:44:42;2.00;;;1.80;;
42586;SDS011;28216;53.362;-6.288;2022-11-14T00:47:07;2.35;;;1.45;;
42586;SDS011;28216;53.362;-6.288;2022-11-14T00:49:32;2.40;;;1.30;;
42586;SDS011;28216;53.362;-6.288;2022-11-14T00:51:58;3.10;;;1.20;;
42586;SDS011;28216;53.362;-6.288;2022-11-14T00:54:23;2.88;;;1.20;;
42586;SDS011;28216;53.362;-6.288;2022-11-14T00:56:50;6.28;;;1.40;;
42586;SDS011;28216;53.362;-6.288;2022-11-14T00:59:16;2.67;;;0.98;;
42586;SDS011;28216;53.362;-6.288;2022-11-14T01:01:41;2.70;;;1.30;;
42586;SDS011;28216;53.362;-6.288;2022-11-14T01:04:07;3.08;;;1.00;;
42586;SDS011;28216;53.362;-6.288;2022-11-14T01:06:32;3.25;;;1.50;;
42586;SDS011;28216;53.362;-6.288;2022-11-14T01:08:57;6.65;;;1.70;;
42586;SDS011;28216;53.362;-6.288;2022-11-14T01:11:23;4.00;;;1.30;;
42586;SDS011;28216;53.362;-6.288;2022-11-14T01:13:48;2.45;;;1.20;;
42586;SDS011;28216;53.362;-6.288;2022-11-14T01:16:14;2.00;;;1.30;;
42586;SDS011;28216;53.362;-6.288;2022-11-14T01:18:40;3.33;;;1.40;;
42586;SDS011;28216;53.362;-6.288;2022-11-14T01:21:07;3.45;;;1.20;;
42586;SDS011;28216;53.362;-6.288;2022-11-14T01:23:33;3.40;;;1.40;;
42586;SDS011;28216;53.362;-6.288;2022-11-14T01:26:09;4.35;;;1.50;;
42586;SDS011;28216;53.362;-6.288;2022-11-14T01:28:37;3.35;;;1.30;;
42586;SDS011;28216;53.362;-6.288;2022-11-14T01:31:22;3.00;;;1.40;;
42586;SDS011;28216;53.362;-6.288;2022-11-14T01:33:50;2.45;;;1.38;;
42586;SDS011;28216;53.362;-6.288;2022-11-14T01:36:17;3.55;;;1.63;;
42586;SDS011;28216;53.362;-6.288;2022-11-14T01:38:43;3.15;;;1.10;;
42586;SDS011;28216;53.362;-6.288;2022-11-14T01:41:11;4.75;;;1.40;;
42586;SDS011;28216;53.362;-6.288;2022-11-14T01:43:38;2.67;;;1.13;;
42586;SDS011;28216;53.362;-6.288;2022-11-14T01:46:26;5.22;;;1.30;;
42586;SDS011;28216;53.362;-6.288;2022-11-14T01:48:51;3.10;;;1.30;;
42586;SDS011;28216;53.362;-6.288;2022-11-14T01:51:28;3.42;;;1.38;;
42586;SDS011;28216;53.362;-6.288;2022-11-14T01:53:55;3.33;;;1.35;;
42586;SDS011;28216;53.362;-6.288;2022-11-14T01:56:28;2.22;;;1.10;;
42586;SDS011;28216;53.362;-6.288;2022-11-14T01:58:58;3.53;;;1.80;;
42586;SDS011;28216;53.362;-6.288;2022-11-14T02:01:31;3.30;;;1.85;;
42586;SDS011;28216;53.362;-6.288;2022-11-14T02:03:59;3.22;;;2.08;;
42586;SDS011;28216;53.362;-6.288;2022-11-14T02:06:29;6.22;;;2.30;;
42586;SDS011;28216;53.362;-6.288;2022-11-14T02:08:55;5.40;;;2.42;;
42586;SDS011;28216;53.362;-6.288;2022-11-14T02:11:27;5.38;;;2.20;;
42586;SDS011;28216;53.362;-6.288;2022-11-14T02:13:55;4.57;;;2.45;;
42586;SDS011;28216;53.362;-6.288;2022-11-14T02:16:23;3.60;;;2.67;;
42586;SDS011;28216;53.362;-6.288;2022-11-14T02:18:49;7.55;;;2.97;;
42586;SDS011;28216;53.362;-6.288;2022-11-14T02:21:15;4.82;;;2.72;;
42586;SDS011;28216;53.362;-6.288;2022-11-14T02:23:40;6.47;;;3.05;;
42586;SDS011;28216;53.362;-6.288;2022-11-14T02:26:06;4.68;;;3.15;;
42586;SDS011;28216;53.362;-6.288;2022-11-14T02:28:31;4.82;;;3.05;;
42586;SDS011;28216;53.362;-6.288;2022-11-14T02:30:57;6.60;;;3.20;;
42586;SDS011;28216;53.362;-6.288;2022-11-14T02:33:22;8.73;;;3.20;;
42586;SDS011;28216;53.362;-6.288;2022-11-14T02:35:47;5.38;;;3.45;;
42586;SDS011;28216;53.362;-6.288;2022-11-14T02:38:13;6.40;;;3.75;;
42586;SDS011;28216;53.362;-6.288;2022-11-14T02:40:38;6.72;;;3.85;;
42586;SDS011;28216;53.362;-6.288;2022-11-14T02:43:04;10.00;;;4.20;;
42586;SDS011;28216;53.362;-6.288;2022-11-14T02:45:29;8.82;;;4.10;;
42586;SDS011;28216;53.362;-6.288;2022-11-14T02:47:55;7.75;;;4.03;;
42586;SDS011;28216;53.362;-6.288;2022-11-14T02:50:20;7.03;;;4.25;;
42586;SDS011;28216;53.362;-6.288;2022-11-14T02:52:46;7.95;;;4.40;;
42586;SDS011;28216;53.362;-6.288;2022-11-14T02:55:11;8.68;;;3.90;;
42586;SDS011;28216;53.362;-6.288;2022-11-14T02:57:37;10.77;;;4.38;;
42586;SDS011;28216;53.362;-6.288;2022-11-14T03:00:03;5.75;;;4.20;;
42586;SDS011;28216;53.362;-6.288;2022-11-14T03:02:29;6.00;;;4.10;;
42586;SDS011;28216;53.362;-6.288;2022-11-14T03:04:55;7.85;;;4.20;;
42586;SDS011;28216;53.362;-6.288;2022-11-14T03:07:20;5.55;;;3.80;;
42586;SDS011;28216;53.362;-6.288;2022-11-14T03:09:46;6.70;;;4.15;;
42586;SDS011;28216;53.362;-6.288;2022-11-14T03:12:14;10.25;;;4.18;;
42586;SDS011;28216;53.362;-6.288;2022-11-14T03:14:40;8.00;;;4.50;;
42586;SDS011;28216;53.362;-6.288;2022-11-14T03:17:06;6.97;;;4.50;;
42586;SDS011;28216;53.362;-6.288;2022-11-14T03:19:31;7.57;;;4.60;;
42586;SDS011;28216;53.362;-6.288;2022-11-14T03:21:56;10.80;;;5.07;;
42586;SDS011;28216;53.362;-6.288;2022-11-14T03:24:22;7.93;;;4.90;;
42586;SDS011;28216;53.362;-6.288;2022-11-14T03:26:47;11.50;;;4.70;;
42586;SDS011;28216;53.362;-6.288;2022-11-14T03:29:13;6.55;;;4.38;;
42586;SDS011;28216;53.362;-6.288;2022-11-14T03:31:38;8.70;;;4.68;;
42586;SDS011;28216;53.362;-6.288;2022-11-14T03:34:04;7.00;;;4.45;;
42586;SDS011;28216;53.362;-6.288;2022-11-14T03:36:29;7.32;;;4.40;;
42586;SDS011;28216;53.362;-6.288;2022-11-14T03:38:54;8.45;;;4.82;;
42586;SDS011;28216;53.362;-6.288;2022-11-14T03:41:20;8.77;;;5.20;;
42586;SDS011;28216;53.362;-6.288;2022-11-14T03:43:45;7.25;;;4.53;;
42586;SDS011;28216;53.362;-6.288;2022-11-14T03:46:10;7.20;;;4.90;;
42586;SDS011;28216;53.362;-6.288;2022-11-14T03:48:36;6.10;;;4.85;;
42586;SDS011;28216;53.362;-6.288;2022-11-14T03:51:01;7.82;;;4.80;;
42586;SDS011;28216;53.362;-6.288;2022-11-14T03:53:27;5.95;;;4.35;;
42586;SDS011;28216;53.362;-6.288;2022-11-14T03:55:52;8.65;;;4.55;;
42586;SDS011;28216;53.362;-6.288;2022-11-14T03:58:19;7.20;;;4.50;;
42586;SDS011;28216;53.362;-6.288;2022-11-14T04:00:44;7.30;;;4.97;;
42586;SDS011;28216;53.362;-6.288;2022-11-14T04:03:10;7.53;;;4.47;;
42586;SDS011;28216;53.362;-6.288;2022-11-14T04:05:35;7.93;;;4.40;;
42586;SDS011;28216;53.362;-6.288;2022-11-14T04:08:03;5.65;;;4.35;;
42586;SDS011;28216;53.362;-6.288;2022-11-14T04:10:29;8.05;;;4.38;;
42586;SDS011;28216;53.362;-6.288;2022-11-14T04:12:55;7.88;;;4.70;;
42586;SDS011;28216;53.362;-6.288;2022-11-14T04:15:20;7.75;;;4.50;;
42586;SDS011;28216;53.362;-6.288;2022-11-14T04:17:46;7.70;;;5.20;;
42586;SDS011;28216;53.362;-6.288;2022-11-14T04:20:12;6.85;;;5.63;;
42586;SDS011;28216;53.362;-6.288;2022-11-14T04:22:38;7.22;;;5.78;;
42586;SDS011;28216;53.362;-6.288;2022-11-14T04:25:04;7.65;;;5.85;;
42586;SDS011;28216;53.362;-6.288;2022-11-14T04:27:30;7.35;;;5.30;;
42586;SDS011;28216;53.362;-6.288;2022-11-14T04:29:56;8.95;;;5.13;;
42586;SDS011;28216;53.362;-6.288;2022-11-14T04:32:21;8.90;;;4.97;;
42586;SDS011;28216;53.362;-6.288;2022-11-14T04:34:47;10.18;;;5.40;;
42586;SDS011;28216;53.362;-6.288;2022-11-14T04:37:12;8.43;;;5.20;;
42586;SDS011;28216;53.362;-6.288;2022-11-14T04:39:37;10.00;;;5.40;;
42586;SDS011;28216;53.362;-6.288;2022-11-14T04:42:03;10.10;;;5.30;;
42586;SDS011;28216;53.362;-6.288;2022-11-14T04:44:28;8.05;;;5.22;;
42586;SDS011;28216;53.362;-6.288;2022-11-14T04:46:54;10.02;;;5.70;;
42586;SDS011;28216;53.362;-6.288;2022-11-14T04:49:20;6.90;;;5.55;;
42586;SDS011;28216;53.362;-6.288;2022-11-14T04:51:45;8.82;;;5.40;;
42586;SDS011;28216;53.362;-6.288;2022-11-14T04:54:11;9.80;;;6.03;;
42586;SDS011;28216;53.362;-6.288;2022-11-14T04:56:36;7.72;;;5.90;;
42586;SDS011;28216;53.362;-6.288;2022-11-14T04:59:01;10.15;;;5.90;;
42586;SDS011;28216;53.362;-6.288;2022-11-14T05:01:27;7.60;;;6.38;;
42586;SDS011;28216;53.362;-6.288;2022-11-14T05:03:52;8.05;;;6.22;;
42586;SDS011;28216;53.362;-6.288;2022-11-14T05:06:18;9.43;;;6.10;;
42586;SDS011;28216;53.362;-6.288;2022-11-14T05:08:43;10.77;;;6.40;;
42586;SDS011;28216;53.362;-6.288;2022-11-14T05:11:15;8.27;;;5.95;;
42586;SDS011;28216;53.362;-6.288;2022-11-14T05:13:42;12.60;;;7.13;;
42586;SDS011;28216;53.362;-6.288;2022-11-14T05:16:08;9.50;;;6.55;;
42586;SDS011;28216;53.362;-6.288;2022-11-14T05:18:33;10.95;;;6.53;;
42586;SDS011;28216;53.362;-6.288;2022-11-14T05:20:59;8.57;;;7.22;;
42586;SDS011;28216;53.362;-6.288;2022-11-14T05:23:25;10.32;;;7.75;;
42586;SDS011;28216;53.362;-6.288;2022-11-14T05:26:04;8.48;;;6.95;;
42586;SDS011;28216;53.362;-6.288;2022-11-14T05:28:34;10.27;;;6.90;;
42586;SDS011;28216;53.362;-6.288;2022-11-14T05:31:03;11.68;;;7.18;;
42586;SDS011;28216;53.362;-6.288;2022-11-14T05:33:34;10.50;;;7.45;;
42586;SDS011;28216;53.362;-6.288;2022-11-14T05:36:00;8.32;;;6.95;;
42586;SDS011;28216;53.362;-6.288;2022-11-14T05:38:27;10.80;;;7.22;;
42586;SDS011;28216;53.362;-6.288;2022-11-14T05:40:52;11.13;;;6.70;;
42586;SDS011;28216;53.362;-6.288;2022-11-14T05:43:18;10.93;;;6.45;;
42586;SDS011;28216;53.362;-6.288;2022-11-14T05:45:43;8.20;;;6.50;;
42586;SDS011;28216;53.362;-6.288;2022-11-14T05:48:08;10.23;;;6.53;;
42586;SDS011;28216;53.362;-6.288;2022-11-14T05:50:34;13.48;;;7.32;;
42586;SDS011;28216;53.362;-6.288;2022-11-14T05:52:59;9.05;;;6.53;;
42586;SDS011;28216;53.362;-6.288;2022-11-14T05:55:25;7.38;;;6.30;;
42586;SDS011;28216;53.362;-6.288;2022-11-14T05:57:50;8.32;;;6.30;;
42586;SDS011;28216;53.362;-6.288;2022-11-14T06:00:16;7.40;;;5.40;;
42586;SDS011;28216;53.362;-6.288;2022-11-14T06:02:41;7.05;;;5.18;;
42586;SDS011;28216;53.362;-6.288;2022-11-14T06:05:07;7.60;;;4.72;;
42586;SDS011;28216;53.362;-6.288;2022-11-14T06:07:33;7.75;;;4.18;;
42586;SDS011;28216;53.362;-6.288;2022-11-14T06:09:58;6.57;;;4.30;;
42586;SDS011;28216;53.362;-6.288;2022-11-14T06:12:24;7.68;;;4.43;;
42586;SDS011;28216;53.362;-6.288;2022-11-14T06:14:49;5.90;;;4.47;;
42586;SDS011;28216;53.362;-6.288;2022-11-14T06:17:15;7.43;;;4.10;;
42586;SDS011;28216;53.362;-6.288;2022-11-14T06:19:40;9.38;;;4.20;;
42586;SDS011;28216;53.362;-6.288;2022-11-14T06:22:05;5.93;;;4.45;;
42586;SDS011;28216;53.362;-6.288;2022-11-14T06:24:31;10.60;;;5.05;;
42586;SDS011;28216;53.362;-6.288;2022-11-14T06:26:56;8.27;;;4.40;;
42586;SDS011;28216;53.362;-6.288;2022-11-14T06:29:22;6.40;;;3.83;;
42586;SDS011;28216;53.362;-6.288;2022-11-14T06:31:47;9.25;;;4.07;;
42586;SDS011;28216;53.362;-6.288;2022-11-14T06:34:13;8.32;;;4.60;;
42586;SDS011;28216;53.362;-6.288;2022-11-14T06:36:38;6.32;;;3.90;;
42586;SDS011;28216;53.362;-6.288;2022-11-14T06:39:03;6.85;;;4.43;;
42586;SDS011;28216;53.362;-6.288;2022-11-14T06:41:29;5.35;;;4.07;;
42586;SDS011;28216;53.362;-6.288;2022-11-14T06:43:54;7.05;;;4.50;;
42586;SDS011;28216;53.362;-6.288;2022-11-14T06:46:21;7.32;;;4.43;;
42586;SDS011;28216;53.362;-6.288;2022-11-14T06:48:47;9.80;;;4.32;;
42586;SDS011;28216;53.362;-6.288;2022-11-14T06:51:14;6.35;;;4.43;;
42586;SDS011;28216;53.362;-6.288;2022-11-14T06:53:41;7.55;;;4.53;;
42586;SDS011;28216;53.362;-6.288;2022-11-14T06:56:09;7.28;;;4.45;;
42586;SDS011;28216;53.362;-6.288;2022-11-14T06:58:37;6.53;;;5.03;;
42586;SDS011;28216;53.362;-6.288;2022-11-14T07:01:05;7.15;;;4.60;;
42586;SDS011;28216;53.362;-6.288;2022-11-14T07:03:37;7.07;;;5.00;;
42586;SDS011;28216;53.362;-6.288;2022-11-14T07:06:03;9.45;;;5.38;;
42586;SDS011;28216;53.362;-6.288;2022-11-14T07:08:29;7.72;;;5.38;;
42586;SDS011;28216;53.362;-6.288;2022-11-14T07:11:17;6.28;;;4.70;;
42586;SDS011;28216;53.362;-6.288;2022-11-14T07:16:15;7.47;;;4.60;;
42586;SDS011;28216;53.362;-6.288;2022-11-14T07:18:40;8.38;;;4.18;;
42586;SDS011;28216;53.362;-6.288;2022-11-14T07:21:09;8.13;;;3.88;;
42586;SDS011;28216;53.362;-6.288;2022-11-14T07:23:37;7.80;;;3.40;;
42586;SDS011;28216;53.362;-6.288;2022-11-14T07:26:04;11.63;;;3.90;;
42586;SDS011;28216;53.362;-6.288;2022-11-14T07:28:34;8.20;;;4.28;;
42586;SDS011;28216;53.362;-6.288;2022-11-14T07:31:04;7.82;;;3.95;;
42586;SDS011;28216;53.362;-6.288;2022-11-14T07:33:34;7.30;;;4.22;;
42586;SDS011;28216;53.362;-6.288;2022-11-14T07:35:59;8.98;;;4.00;;
42586;SDS011;28216;53.362;-6.288;2022-11-14T07:38:25;4.75;;;3.05;;
42586;SDS011;28216;53.362;-6.288;2022-11-14T07:40:54;5.75;;;2.80;;
42586;SDS011;28216;53.362;-6.288;2022-11-14T07:43:20;4.05;;;2.38;;
42586;SDS011;28216;53.362;-6.288;2022-11-14T07:45:46;6.10;;;2.90;;
42586;SDS011;28216;53.362;-6.288;2022-11-14T07:48:12;6.03;;;2.53;;
42586;SDS011;28216;53.362;-6.288;2022-11-14T07:50:37;4.20;;;1.90;;
42586;SDS011;28216;53.362;-6.288;2022-11-14T07:53:03;7.75;;;2.00;;
42586;SDS011;28216;53.362;-6.288;2022-11-14T07:55:31;7.00;;;1.88;;
42586;SDS011;28216;53.362;-6.288;2022-11-14T07:57:59;5.25;;;1.60;;
42586;SDS011;28216;53.362;-6.288;2022-11-14T08:00:25;4.47;;;1.65;;
42586;SDS011;28216;53.362;-6.288;2022-11-14T08:02:50;5.93;;;1.90;;
42586;SDS011;28216;53.362;-6.288;2022-11-14T08:05:16;5.97;;;1.90;;
42586;SDS011;28216;53.362;-6.288;2022-11-14T08:07:42;5.75;;;1.73;;
42586;SDS011;28216;53.362;-6.288;2022-11-14T08:10:08;6.50;;;1.70;;
42586;SDS011;28216;53.362;-6.288;2022-11-14T08:12:35;5.75;;;1.77;;
42586;SDS011;28216;53.362;-6.288;2022-11-14T08:15:03;8.80;;;2.40;;
42586;SDS011;28216;53.362;-6.288;2022-11-14T08:17:30;7.05;;;2.60;;
42586;SDS011;28216;53.362;-6.288;2022-11-14T08:19:55;7.43;;;2.50;;
42586;SDS011;28216;53.362;-6.288;2022-11-14T08:22:21;6.15;;;2.28;;
42586;SDS011;28216;53.362;-6.288;2022-11-14T08:24:46;5.80;;;2.20;;
42586;SDS011;28216;53.362;-6.288;2022-11-14T08:27:12;8.57;;;2.15;;
42586;SDS011;28216;53.362;-6.288;2022-11-14T08:29:37;4.45;;;2.17;;
42586;SDS011;28216;53.362;-6.288;2022-11-14T08:32:03;5.05;;;1.75;;
42586;SDS011;28216;53.362;-6.288;2022-11-14T08:34:31;5.80;;;2.13;;
42586;SDS011;28216;53.362;-6.288;2022-11-14T08:36:59;6.75;;;1.88;;
42586;SDS011;28216;53.362;-6.288;2022-11-14T08:39:25;6.18;;;1.83;;
42586;SDS011;28216;53.362;-6.288;2022-11-14T08:41:51;8.85;;;1.95;;
42586;SDS011;28216;53.362;-6.288;2022-11-14T08:44:16;5.20;;;1.80;;
42586;SDS011;28216;53.362;-6.288;2022-11-14T08:46:42;6.75;;;2.20;;
42586;SDS011;28216;53.362;-6.288;2022-11-14T08:49:07;4.25;;;1.95;;
42586;SDS011;28216;53.362;-6.288;2022-11-14T08:51:33;6.13;;;2.00;;
42586;SDS011;28216;53.362;-6.288;2022-11-14T08:53:58;6.18;;;1.50;;
42586;SDS011;28216;53.362;-6.288;2022-11-14T08:56:24;5.57;;;2.00;;
42586;SDS011;28216;53.362;-6.288;2022-11-14T08:58:49;5.07;;;1.90;;
42586;SDS011;28216;53.362;-6.288;2022-11-14T09:01:15;7.10;;;1.95;;
42586;SDS011;28216;53.362;-6.288;2022-11-14T09:03:41;5.32;;;2.10;;
42586;SDS011;28216;53.362;-6.288;2022-11-14T09:06:06;5.00;;;2.03;;
42586;SDS011;28216;53.362;-6.288;2022-11-14T09:08:32;5.15;;;2.03;;
42586;SDS011;28216;53.362;-6.288;2022-11-14T09:11:01;7.35;;;2.20;;
42586;SDS011;28216;53.362;-6.288;2022-11-14T09:13:27;4.93;;;1.80;;
42586;SDS011;28216;53.362;-6.288;2022-11-14T09:15:53;5.88;;;2.30;;
42586;SDS011;28216;53.362;-6.288;2022-11-14T09:18:18;7.60;;;2.30;;
42586;SDS011;28216;53.362;-6.288;2022-11-14T09:20:44;4.93;;;2.13;;
42586;SDS011;28216;53.362;-6.288;2022-11-14T09:23:09;7.63;;;2.30;;
42586;SDS011;28216;53.362;-6.288;2022-11-14T09:25:35;4.53;;;2.10;;
42586;SDS011;28216;53.362;-6.288;2022-11-14T09:28:05;6.95;;;2.55;;
42586;SDS011;28216;53.362;-6.288;2022-11-14T09:30:31;9.13;;;2.60;;
42586;SDS011;28216;53.362;-6.288;2022-11-14T09:32:58;5.00;;;2.20;;
42586;SDS011;28216;53.362;-6.288;2022-11-14T09:35:25;7.57;;;2.40;;
42586;SDS011;28216;53.362;-6.288;2022-11-14T09:38:12;8.48;;;3.83;;
42586;SDS011;28216;53.362;-6.288;2022-11-14T09:46:54;10.73;;;4.70;;
42586;SDS011;28216;53.362;-6.288;2022-11-14T09:52:08;11.13;;;3.80;;
42586;SDS011;28216;53.362;-6.288;2022-11-14T09:54:41;4.45;;;2.13;;
42586;SDS011;28216;53.362;-6.288;2022-11-14T09:57:14;10.05;;;3.78;;
42586;SDS011;28216;53.362;-6.288;2022-11-14T09:59:41;6.75;;;2.83;;
42586;SDS011;28216;53.362;-6.288;2022-11-14T10:19:03;4.68;;;1.40;;
42586;SDS011;28216;53.362;-6.288;2022-11-14T10:21:38;5.55;;;1.63;;
42586;SDS011;28216;53.362;-6.288;2022-11-14T10:27:05;5.00;;;1.50;;
42586;SDS011;28216;53.362;-6.288;2022-11-14T10:35:14;5.00;;;2.10;;
42586;SDS011;28216;53.362;-6.288;2022-11-14T10:37:56;7.28;;;1.95;;
42586;SDS011;28216;53.362;-6.288;2022-11-14T10:40:24;8.05;;;1.70;;
42586;SDS011;28216;53.362;-6.288;2022-11-14T10:42:56;8.52;;;1.60;;
42586;SDS011;28216;53.362;-6.288;2022-11-14T10:50:39;7.78;;;1.80;;
42586;SDS011;28216;53.362;-6.288;2022-11-14T10:55:44;7.43;;;1.70;;
42586;SDS011;28216;53.362;-6.288;2022-11-14T10:58:13;4.47;;;1.50;;
42586;SDS011;28216;53.362;-6.288;2022-11-14T11:00:39;6.97;;;1.88;;
42586;SDS011;28216;53.362;-6.288;2022-11-14T11:03:04;3.78;;;1.38;;
42586;SDS011;28216;53.362;-6.288;2022-11-14T11:05:31;4.85;;;2.15;;
42586;SDS011;28216;53.362;-6.288;2022-11-14T11:08:10;4.82;;;1.63;;
42586;SDS011;28216;53.362;-6.288;2022-11-14T11:10:56;6.25;;;1.40;;
42586;SDS011;28216;53.362;-6.288;2022-11-14T11:13:54;6.22;;;1.80;;
42586;SDS011;28216;53.362;-6.288;2022-11-14T11:16:22;3.92;;;1.30;;
42586;SDS011;28216;53.362;-6.288;2022-11-14T11:18:49;4.95;;;1.70;;
42586;SDS011;28216;53.362;-6.288;2022-11-14T11:21:17;4.03;;;1.10;;
42586;SDS011;28216;53.362;-6.288;2022-11-14T11:23:54;4.63;;;1.30;;
42586;SDS011;28216;53.362;-6.288;2022-11-14T11:26:24;5.95;;;1.63;;
42586;SDS011;28216;53.362;-6.288;2022-11-14T11:31:26;5.38;;;1.40;;
42586;SDS011;28216;53.362;-6.288;2022-11-14T11:33:52;5.45;;;1.30;;
42586;SDS011;28216;53.362;-6.288;2022-11-14T11:36:18;4.72;;;1.20;;
42586;SDS011;28216;53.362;-6.288;2022-11-14T11:38:47;4.25;;;1.17;;
42586;SDS011;28216;53.362;-6.288;2022-11-14T11:44:00;4.25;;;1.30;;
42586;SDS011;28216;53.362;-6.288;2022-11-14T11:51:54;2.58;;;1.10;;
42586;SDS011;28216;53.362;-6.288;2022-11-14T11:54:26;3.65;;;1.20;;
42586;SDS011;28216;53.362;-6.288;2022-11-14T11:57:07;4.27;;;1.27;;
42586;SDS011;28216;53.362;-6.288;2022-11-14T11:59:40;3.00;;;1.17;;
42586;SDS011;28216;53.362;-6.288;2022-11-14T12:02:26;7.13;;;1.25;;
42586;SDS011;28216;53.362;-6.288;2022-11-14T12:04:52;2.35;;;1.08;;
42586;SDS011;28216;53.362;-6.288;2022-11-14T12:07:21;6.30;;;1.60;;
42586;SDS011;28216;53.362;-6.288;2022-11-14T12:09:58;7.70;;;1.40;;
42586;SDS011;28216;53.362;-6.288;2022-11-14T12:29:28;5.38;;;1.58;;
42586;SDS011;28216;53.362;-6.288;2022-11-14T12:32:24;3.17;;;1.50;;
42586;SDS011;28216;53.362;-6.288;2022-11-14T12:35:02;5.15;;;1.35;;
42586;SDS011;28216;53.362;-6.288;2022-11-14T12:37:35;4.50;;;1.38;;
42586;SDS011;28216;53.362;-6.288;2022-11-14T12:40:15;4.70;;;1.00;;
42586;SDS011;28216;53.362;-6.288;2022-11-14T12:43:25;3.03;;;1.10;;
42586;SDS011;28216;53.362;-6.288;2022-11-14T12:50:45;3.40;;;1.10;;
42586;SDS011;28216;53.362;-6.288;2022-11-14T13:10:24;4.45;;;1.60;;
42586;SDS011;28216;53.362;-6.288;2022-11-14T13:12:56;5.05;;;1.20;;
42586;SDS011;28216;53.362;-6.288;2022-11-14T13:15:51;5.32;;;1.40;;
42586;SDS011;28216;53.362;-6.288;2022-11-14T13:27:29;2.92;;;0.95;;
42586;SDS011;28216;53.362;-6.288;2022-11-14T13:29:56;3.38;;;1.00;;
42586;SDS011;28216;53.362;-6.288;2022-11-14T13:32:51;1.60;;;0.75;;
42586;SDS011;28216;53.362;-6.288;2022-11-14T13:35:20;3.63;;;1.00;;
42586;SDS011;28216;53.362;-6.288;2022-11-14T13:37:53;2.63;;;0.80;;
42586;SDS011;28216;53.362;-6.288;2022-11-14T13:40:27;4.05;;;1.20;;
42586;SDS011;28216;53.362;-6.288;2022-11-14T13:43:00;2.70;;;0.68;;
42586;SDS011;28216;53.362;-6.288;2022-11-14T13:51:17;2.25;;;0.80;;
42586;SDS011;28216;53.362;-6.288;2022-11-14T13:53:44;4.40;;;1.05;;
42586;SDS011;28216;53.362;-6.288;2022-11-14T13:56:15;6.50;;;1.00;;
42586;SDS011;28216;53.362;-6.288;2022-11-14T14:01:49;5.80;;;1.40;;
42586;SDS011;28216;53.362;-6.288;2022-11-14T14:04:39;6.70;;;1.15;;
42586;SDS011;28216;53.362;-6.288;2022-11-14T14:09:45;4.43;;;1.20;;
42586;SDS011;28216;53.362;-6.288;2022-11-14T14:17:34;4.22;;;1.00;;
42586;SDS011;28216;53.362;-6.288;2022-11-14T14:20:20;2.60;;;1.40;;
42586;SDS011;28216;53.362;-6.288;2022-11-14T14:23:01;5.95;;;2.00;;
42586;SDS011;28216;53.362;-6.288;2022-11-14T14:31:17;7.88;;;3.22;;
42586;SDS011;28216;53.362;-6.288;2022-11-14T14:33:44;4.93;;;1.40;;
42586;SDS011;28216;53.362;-6.288;2022-11-14T14:36:25;1.40;;;1.20;;
42586;SDS011;28216;53.362;-6.288;2022-11-14T14:41:51;7.50;;;1.92;;
42586;SDS011;28216;53.362;-6.288;2022-11-14T14:44:26;2.55;;;1.00;;
42586;SDS011;28216;53.362;-6.288;2022-11-14T14:46:55;4.43;;;1.30;;
42586;SDS011;28216;53.362;-6.288;2022-11-14T14:49:42;6.68;;;1.73;;
42586;SDS011;28216;53.362;-6.288;2022-11-14T14:55:02;3.13;;;1.00;;
42586;SDS011;28216;53.362;-6.288;2022-11-14T14:57:30;3.03;;;1.38;;
42586;SDS011;28216;53.362;-6.288;2022-11-14T15:00:00;3.47;;;1.20;;
42586;SDS011;28216;53.362;-6.288;2022-11-14T15:02:27;3.17;;;1.20;;
42586;SDS011;28216;53.362;-6.288;2022-11-14T15:04:54;31.42;;;12.43;;
42586;SDS011;28216;53.362;-6.288;2022-11-14T15:07:24;8.80;;;3.10;;
42586;SDS011;28216;53.362;-6.288;2022-11-14T15:09:58;2.75;;;1.45;;
42586;SDS011;28216;53.362;-6.288;2022-11-14T15:12:28;6.20;;;3.72;;
42586;SDS011;28216;53.362;-6.288;2022-11-14T15:14:56;4.38;;;1.50;;
42586;SDS011;28216;53.362;-6.288;2022-11-14T15:17:25;4.45;;;1.70;;
42586;SDS011;28216;53.362;-6.288;2022-11-14T15:19:52;4.80;;;1.40;;
42586;SDS011;28216;53.362;-6.288;2022-11-14T15:22:19;5.63;;;1.50;;
42586;SDS011;28216;53.362;-6.288;2022-11-14T15:27:52;3.42;;;1.35;;
42586;SDS011;28216;53.362;-6.288;2022-11-14T15:30:20;5.80;;;1.27;;
42586;SDS011;28216;53.362;-6.288;2022-11-14T15:32:48;6.15;;;1.30;;
42586;SDS011;28216;53.362;-6.288;2022-11-14T15:38:04;5.65;;;2.55;;
42586;SDS011;28216;53.362;-6.288;2022-11-14T15:40:38;7.47;;;1.23;;
42586;SDS011;28216;53.362;-6.288;2022-11-14T15:46:01;5.68;;;1.60;;
42586;SDS011;28216;53.362;-6.288;2022-11-14T15:48:30;7.28;;;2.38;;
42586;SDS011;28216;53.362;-6.288;2022-11-14T15:50:56;13.70;;;6.22;;
42586;SDS011;28216;53.362;-6.288;2022-11-14T15:53:31;6.80;;;2.53;;
42586;SDS011;28216;53.362;-6.288;2022-11-14T15:55:57;3.63;;;1.60;;
42586;SDS011;28216;53.362;-6.288;2022-11-14T15:58:23;4.88;;;1.67;;
42586;SDS011;28216;53.362;-6.288;2022-11-14T16:00:49;5.90;;;1.73;;
42586;SDS011;28216;53.362;-6.288;2022-11-14T16:03:16;5.35;;;1.50;;
42586;SDS011;28216;53.362;-6.288;2022-11-14T16:05:47;7.35;;;1.50;;
42586;SDS011;28216;53.362;-6.288;2022-11-14T16:08:14;5.47;;;1.55;;
42586;SDS011;28216;53.362;-6.288;2022-11-14T16:10:39;6.55;;;1.50;;
42586;SDS011;28216;53.362;-6.288;2022-11-14T16:13:05;6.50;;;1.70;;
42586;SDS011;28216;53.362;-6.288;2022-11-14T16:15:39;9.00;;;2.27;;
42586;SDS011;28216;53.362;-6.288;2022-11-14T16:18:05;9.50;;;1.65;;
42586;SDS011;28216;53.362;-6.288;2022-11-14T16:20:30;6.38;;;1.40;;
42586;SDS011;28216;53.362;-6.288;2022-11-14T16:23:01;5.68;;;1.30;;
42586;SDS011;28216;53.362;-6.288;2022-11-14T16:25:28;5.65;;;2.00;;
42586;SDS011;28216;53.362;-6.288;2022-11-14T16:27:56;6.43;;;1.98;;
42586;SDS011;28216;53.362;-6.288;2022-11-14T16:30:22;4.38;;;1.67;;
42586;SDS011;28216;53.362;-6.288;2022-11-14T16:32:49;4.07;;;1.80;;
42586;SDS011;28216;53.362;-6.288;2022-11-14T16:35:36;9.77;;;1.70;;
42586;SDS011;28216;53.362;-6.288;2022-11-14T16:38:03;6.10;;;1.80;;
42586;SDS011;28216;53.362;-6.288;2022-11-14T16:40:28;8.50;;;1.92;;
42586;SDS011;28216;53.362;-6.288;2022-11-14T16:42:57;6.38;;;2.10;;
42586;SDS011;28216;53.362;-6.288;2022-11-14T16:45:28;10.27;;;3.72;;
42586;SDS011;28216;53.362;-6.288;2022-11-14T16:48:06;7.07;;;2.40;;
42586;SDS011;28216;53.362;-6.288;2022-11-14T16:50:31;6.40;;;2.42;;
42586;SDS011;28216;53.362;-6.288;2022-11-14T16:53:06;10.10;;;2.00;;
42586;SDS011;28216;53.362;-6.288;2022-11-14T16:55:33;11.30;;;2.85;;
42586;SDS011;28216;53.362;-6.288;2022-11-14T16:58:01;5.57;;;2.50;;
42586;SDS011;28216;53.362;-6.288;2022-11-14T17:00:27;10.02;;;2.33;;